createdAt,value
2018-09-03T00:00:07.000Z,476.27
2018-09-03T00:02:35.584Z,479.90
2018-09-03T00:05:04.158Z,482.33
2018-09-03T00:07:32.653Z,511.93
2018-09-03T00:10:01.164Z,518.57
2018-09-03T00:12:29.668Z,527.30
2018-09-03T00:14:58.194Z,548.30
2018-09-03T00:17:26.673Z,551.07
2018-09-03T00:19:55.175Z,558.47
2018-09-03T00:22:23.639Z,565.17
2018-09-03T00:24:52.161Z,573.50
2018-09-03T00:27:20.681Z,554.50
2018-09-03T00:29:49.160Z,572.23
2018-09-03T00:32:23.024Z,568.97
2018-09-03T00:34:57.064Z,549.00
2018-09-03T00:37:30.789Z,565.53
2018-09-03T00:40:04.683Z,576.07
2018-09-03T00:42:38.598Z,573.63
2018-09-03T00:45:12.417Z,595.97
2018-09-03T00:47:40.955Z,572.03
2018-09-03T00:50:09.478Z,565.20
2018-09-03T00:52:37.996Z,562.13
2018-09-03T00:55:06.583Z,544.10
2018-09-03T00:57:35.106Z,566.07
2018-09-03T01:00:03.718Z,557.50
2018-09-03T01:02:32.258Z,557.10
2018-09-03T01:05:00.768Z,565.03
2018-09-03T01:07:29.315Z,581.57
2018-09-03T01:09:57.851Z,582.23
2018-09-03T01:12:26.347Z,562.67
2018-09-03T01:14:54.876Z,602.07
2018-09-03T01:17:23.371Z,577.80
2018-09-03T01:19:51.884Z,583.80
2018-09-03T01:22:20.398Z,617.07
2018-09-03T01:24:48.877Z,613.17
2018-09-03T01:27:17.444Z,599.37
2018-09-03T01:29:45.969Z,598.57
2018-09-03T01:32:14.474Z,585.43
2018-09-03T01:34:42.981Z,608.40
2018-09-03T01:37:11.517Z,585.77
2018-09-03T01:39:39.983Z,604.40
2018-09-03T01:42:08.528Z,625.27
2018-09-03T01:44:37.072Z,624.60
2018-09-03T01:47:05.649Z,624.27
2018-09-03T01:49:34.261Z,633.77
2018-09-03T01:52:02.767Z,620.37
2018-09-03T01:54:31.412Z,629.10
2018-09-03T01:56:59.958Z,656.40
2018-09-03T01:59:28.457Z,636.03
2018-09-03T02:01:56.996Z,643.77
2018-09-03T02:04:25.494Z,656.43
2018-09-03T02:06:54.036Z,631.50
2018-09-03T02:09:22.563Z,644.37
2018-09-03T02:11:51.076Z,638.83
2018-09-03T02:14:19.591Z,625.93
2018-09-03T02:16:48.144Z,637.33
2018-09-03T02:19:16.705Z,628.57
2018-09-03T02:21:45.215Z,644.40
2018-09-03T02:24:13.708Z,640.57
2018-09-03T02:26:42.247Z,680.40
2018-09-03T02:29:10.717Z,660.83
2018-09-03T02:31:39.236Z,669.80
2018-09-03T02:34:07.718Z,666.00
2018-09-03T02:36:36.209Z,674.40
2018-09-03T02:39:06.251Z,675.50
2018-09-03T02:41:34.798Z,662.47
2018-09-03T02:44:03.304Z,638.07
2018-09-03T02:46:31.848Z,647.83
2018-09-03T02:49:00.355Z,627.07
2018-09-03T02:51:28.969Z,645.73
2018-09-03T02:53:57.474Z,594.60
2018-09-03T02:56:26.020Z,644.53
2018-09-03T02:58:54.556Z,621.43
2018-09-03T03:01:23.055Z,622.37
2018-09-03T03:03:51.513Z,634.87
2018-09-03T03:06:20.065Z,640.27
2018-09-03T03:08:48.597Z,633.70
2018-09-03T03:11:17.179Z,630.47
2018-09-03T03:13:45.829Z,609.23
2018-09-03T03:16:14.361Z,598.70
2018-09-03T03:18:42.879Z,603.97
2018-09-03T03:21:11.481Z,586.93
2018-09-03T03:23:39.996Z,614.17
2018-09-03T03:26:08.506Z,616.50
2018-09-03T03:28:36.984Z,615.10
2018-09-03T03:31:05.712Z,602.90
2018-09-03T03:33:34.369Z,624.10
2018-09-03T03:36:02.888Z,579.73
2018-09-03T03:38:31.412Z,606.07
2018-09-03T03:41:00.144Z,577.30
2018-09-03T03:43:29.152Z,536.33
2018-09-03T03:45:57.615Z,551.57
2018-09-03T03:48:26.175Z,563.23
2018-09-03T03:50:55.381Z,507.50
2018-09-03T03:53:23.978Z,500.77
2018-09-03T03:55:52.512Z,479.73
2018-09-03T03:58:21.132Z,446.17
2018-09-03T04:00:49.800Z,445.70
2018-09-03T04:03:18.313Z,429.57
2018-09-03T04:05:46.876Z,382.87
2018-09-03T04:08:15.336Z,364.23
2018-09-03T04:10:43.824Z,387.70
2018-09-03T04:13:12.433Z,342.83
2018-09-03T04:15:40.881Z,343.50
2018-09-03T04:18:09.393Z,291.63
2018-09-03T04:20:37.938Z,290.90
2018-09-03T04:23:06.496Z,231.07
2018-09-03T04:25:35.073Z,216.87
2018-09-03T04:28:03.629Z,221.07
2018-09-03T04:30:32.203Z,226.07
2018-09-03T04:33:00.775Z,230.47
2018-09-03T04:35:29.249Z,227.83
2018-09-03T04:37:57.764Z,200.00
2018-09-03T04:40:26.263Z,232.30
2018-09-03T04:42:54.834Z,226.43
2018-09-03T04:45:23.399Z,233.77
2018-09-03T04:47:51.962Z,217.93
2018-09-03T04:50:20.440Z,227.80
2018-09-03T04:52:48.970Z,189.90
2018-09-03T04:55:17.477Z,184.07
2018-09-03T04:57:46.031Z,185.20
2018-09-03T05:00:15.560Z,183.27
2018-09-03T05:02:44.328Z,170.73
2018-09-03T05:05:12.941Z,119.73
2018-09-03T05:07:41.404Z,133.00
2018-09-03T05:10:09.940Z,114.13
2018-09-03T05:12:38.504Z,126.80
2018-09-03T05:15:07.037Z,118.30
2018-09-03T05:17:35.599Z,136.73
2018-09-03T05:20:04.110Z,160.70
2018-09-03T05:22:32.649Z,210.03
2018-09-03T05:25:01.237Z,241.90
2018-09-03T05:27:29.699Z,224.23
2018-09-03T05:29:58.370Z,313.93
2018-09-03T05:32:26.833Z,333.17
2018-09-03T05:34:55.408Z,351.27
2018-09-03T05:37:23.974Z,389.37
2018-09-03T05:39:52.484Z,496.07
2018-09-03T05:42:21.070Z,498.77
2018-09-03T05:44:49.654Z,469.73
2018-09-03T05:47:18.121Z,481.87
2018-09-03T05:49:46.698Z,464.47
2018-09-03T05:52:15.165Z,473.73
2018-09-03T05:54:43.730Z,494.17
2018-09-03T05:57:12.577Z,454.10
2018-09-03T05:59:41.078Z,440.20
2018-09-03T06:02:09.723Z,457.90
2018-09-03T06:04:38.306Z,425.13
2018-09-03T06:07:06.829Z,447.00
2018-09-03T06:09:35.349Z,440.37
2018-09-03T06:12:03.834Z,399.37
2018-09-03T06:14:32.353Z,364.60
2018-09-03T06:17:00.991Z,366.43
2018-09-03T06:19:29.464Z,358.27
2018-09-03T06:21:58.080Z,349.03
2018-09-03T06:24:26.601Z,388.27
2018-09-03T06:26:55.148Z,362.03
2018-09-03T06:29:23.648Z,359.27
2018-09-03T06:31:52.156Z,373.40
2018-09-03T06:34:20.754Z,379.57
2018-09-03T06:36:49.477Z,356.53
2018-09-03T06:39:18.147Z,352.33
2018-09-03T06:41:46.671Z,398.83
2018-09-03T06:44:15.253Z,392.43
2018-09-03T06:46:43.819Z,382.20
2018-09-03T06:49:12.348Z,351.33
2018-09-03T06:51:41.041Z,301.67
2018-09-03T06:54:09.544Z,207.67
2018-09-03T06:56:38.016Z,111.37
2018-09-03T06:59:06.545Z,74.60
2018-09-03T07:01:35.014Z,69.00
2018-09-03T07:04:03.568Z,62.00
2018-09-03T07:06:32.071Z,62.70
2018-09-03T07:09:00.651Z,68.03
2018-09-03T07:11:29.174Z,63.63
2018-09-03T07:13:57.680Z,66.33
2018-09-03T07:16:26.231Z,72.13
2018-09-03T07:18:54.749Z,74.07
2018-09-03T07:21:23.239Z,74.20
2018-09-03T07:23:51.708Z,72.13
2018-09-03T07:26:20.247Z,86.23
2018-09-03T07:28:48.819Z,107.70
2018-09-03T07:31:17.646Z,141.57
2018-09-03T07:33:46.181Z,216.40
2018-09-03T07:36:14.838Z,312.20
2018-09-03T07:38:43.409Z,440.00
2018-09-03T07:41:12.430Z,581.37
2018-09-03T07:43:41.135Z,625.63
2018-09-03T07:46:09.692Z,600.40
2018-09-03T07:48:38.159Z,570.63
2018-09-03T07:51:06.717Z,591.10
2018-09-03T07:53:35.216Z,705.90
2018-09-03T07:56:03.737Z,733.17
2018-09-03T07:58:32.262Z,807.97
2018-09-03T08:01:00.747Z,867.67
2018-09-03T08:03:29.281Z,950.03
2018-09-03T08:05:57.953Z,975.27
2018-09-03T08:08:26.474Z,915.33
2018-09-03T08:10:55.036Z,928.47
2018-09-03T08:13:28.930Z,828.00
2018-09-03T08:15:57.441Z,748.93
2018-09-03T08:18:25.977Z,682.37
2018-09-03T08:20:54.716Z,704.83
2018-09-03T08:23:23.180Z,715.50
2018-09-03T08:25:51.722Z,698.53
2018-09-03T08:28:20.240Z,734.97
2018-09-03T08:30:48.782Z,754.57
2018-09-03T08:33:17.267Z,718.40
2018-09-03T08:35:45.875Z,682.10
2018-09-03T08:38:14.416Z,630.50
2018-09-03T08:40:43.227Z,610.13
2018-09-03T08:43:11.698Z,602.97
2018-09-03T08:45:40.236Z,584.00
2018-09-03T08:48:08.816Z,566.40
2018-09-03T08:50:37.308Z,584.57
2018-09-03T08:53:06.121Z,583.10
2018-09-03T08:55:34.647Z,574.37
2018-09-03T08:58:03.222Z,610.47
2018-09-03T09:00:31.748Z,593.50
2018-09-03T09:03:00.271Z,590.57
2018-09-03T09:05:28.826Z,580.97
2018-09-03T09:07:57.361Z,632.30
2018-09-03T09:10:25.879Z,745.43
2018-09-03T09:12:54.456Z,752.30
2018-09-03T09:15:23.003Z,778.60
2018-09-03T09:17:52.861Z,798.97
2018-09-03T09:20:21.461Z,779.17
2018-09-03T09:22:49.956Z,775.17
2018-09-03T09:25:18.476Z,766.47
2018-09-03T09:27:46.992Z,750.20
2018-09-03T09:30:15.516Z,776.53
2018-09-03T09:32:44.067Z,796.63
2018-09-03T09:35:12.535Z,852.03
2018-09-03T09:37:41.023Z,863.37
2018-09-03T09:40:09.645Z,870.63
2018-09-03T09:42:40.170Z,850.20
2018-09-03T09:45:08.989Z,888.73
2018-09-03T09:47:37.481Z,892.53
2018-09-03T09:50:06.067Z,921.40
2018-09-03T09:52:34.679Z,955.90
2018-09-03T09:55:03.661Z,924.83
2018-09-03T09:57:32.213Z,950.17
2018-09-03T10:00:00.713Z,947.00
2018-09-03T10:02:29.228Z,913.77
2018-09-03T10:04:57.751Z,955.27
2018-09-03T10:07:26.251Z,957.17
2018-09-03T10:09:54.762Z,998.53
2018-09-03T10:12:28.679Z,993.07
2018-09-03T10:14:57.189Z,1028.37
2018-09-03T10:17:25.706Z,1048.83
2018-09-03T10:19:54.223Z,1073.10
2018-09-03T10:22:22.752Z,1067.67
2018-09-03T10:24:51.253Z,1065.33
2018-09-03T10:27:19.790Z,1056.90
2018-09-03T10:29:48.313Z,1055.30
2018-09-03T10:32:17.042Z,1052.10
2018-09-03T10:34:48.828Z,1011.17
2018-09-03T10:37:17.380Z,1000.63
2018-09-03T10:39:45.860Z,1037.23
2018-09-03T10:42:16.884Z,973.80
2018-09-03T10:44:45.392Z,951.47
2018-09-03T10:47:14.160Z,934.40
2018-09-03T10:49:42.636Z,914.00
2018-09-03T10:52:11.246Z,955.27
2018-09-03T10:54:39.802Z,912.67
2018-09-03T10:57:08.323Z,923.47
2018-09-03T10:59:40.841Z,898.63
2018-09-03T11:02:10.946Z,943.03
2018-09-03T11:04:39.552Z,914.70
2018-09-03T11:07:08.512Z,910.20
2018-09-03T11:09:37.229Z,891.93
2018-09-03T11:12:07.084Z,931.30
2018-09-03T11:14:35.616Z,927.03
2018-09-03T11:17:04.239Z,952.83
2018-09-03T11:19:35.261Z,914.40
2018-09-03T11:22:03.900Z,952.37
2018-09-03T11:24:32.416Z,955.17
2018-09-03T11:27:00.938Z,953.67
2018-09-03T11:29:29.425Z,927.60
2018-09-03T11:31:57.955Z,964.43
2018-09-03T11:34:27.505Z,1012.53
2018-09-03T11:36:55.964Z,992.90
2018-09-03T11:39:24.480Z,991.27
2018-09-03T11:41:53.035Z,975.50
2018-09-03T11:44:21.544Z,983.07
2018-09-03T11:46:50.051Z,1051.10
2018-09-03T11:49:18.569Z,1002.60
2018-09-03T11:51:47.063Z,973.47
2018-09-03T11:54:15.531Z,1039.43
2018-09-03T11:56:44.019Z,985.70
2018-09-03T11:59:12.492Z,954.13
2018-09-03T12:01:41.009Z,1001.70
2018-09-03T12:04:09.560Z,1011.93
2018-09-03T12:06:38.148Z,1014.53
2018-09-03T12:09:08.642Z,989.23
2018-09-03T12:11:37.363Z,1047.90
2018-09-03T12:14:12.176Z,1073.07
2018-09-03T12:16:40.721Z,1019.67
2018-09-03T12:19:09.864Z,1068.77
2018-09-03T12:21:38.364Z,1080.67
2018-09-03T12:24:06.867Z,1072.70
2018-09-03T12:26:35.324Z,1068.77
2018-09-03T12:29:05.168Z,1062.70
2018-09-03T12:31:33.740Z,1035.73
2018-09-03T12:34:02.239Z,1046.10
2018-09-03T12:36:30.708Z,1118.63
2018-09-03T12:38:59.197Z,1078.63
2018-09-03T12:41:27.765Z,1104.07
2018-09-03T12:43:56.367Z,1102.27
2018-09-03T12:46:24.976Z,1126.93
2018-09-03T12:48:53.695Z,1169.67
2018-09-03T12:51:22.310Z,1141.90
2018-09-03T12:53:50.754Z,1174.93
2018-09-03T12:56:19.324Z,1182.13
2018-09-03T12:58:47.900Z,1212.70
2018-09-03T13:01:16.560Z,1237.07
2018-09-03T13:03:45.085Z,1222.17
2018-09-03T13:06:13.653Z,1193.00
2018-09-03T13:08:42.182Z,1169.90
2018-09-03T13:11:10.699Z,1123.77
2018-09-03T13:13:39.226Z,1103.00
2018-09-03T13:16:07.754Z,1132.73
2018-09-03T13:18:36.262Z,1092.33
2018-09-03T13:21:04.804Z,1050.70
2018-09-03T13:23:33.295Z,1014.30
2018-09-03T13:26:01.840Z,1039.17
2018-09-03T13:28:30.306Z,1014.93
2018-09-03T13:30:58.781Z,1023.27
2018-09-03T13:33:27.309Z,1025.33
2018-09-03T13:35:55.786Z,997.97
2018-09-03T13:38:24.310Z,1007.63
2018-09-03T13:40:52.826Z,1006.37
2018-09-03T13:43:21.373Z,997.33
2018-09-03T13:45:49.894Z,976.83
2018-09-03T13:48:18.478Z,1007.80
2018-09-03T13:50:47.161Z,1012.03
2018-09-03T13:53:15.646Z,1005.97
2018-09-03T13:55:44.157Z,1036.53
2018-09-03T13:58:12.625Z,1040.40
2018-09-03T14:00:41.157Z,1011.30
2018-09-03T14:03:09.647Z,1019.30
2018-09-03T14:05:38.207Z,1003.93
2018-09-03T14:08:06.691Z,996.23
2018-09-03T14:10:35.316Z,992.93
2018-09-03T14:13:03.799Z,985.60
2018-09-03T14:15:32.310Z,974.47
2018-09-03T14:18:00.800Z,980.43
2018-09-03T14:20:29.312Z,1003.80
2018-09-03T14:22:57.751Z,1041.20
2018-09-03T14:25:26.304Z,1033.93
2018-09-03T14:27:54.774Z,1018.47
2018-09-03T14:30:23.237Z,1016.37
2018-09-03T14:32:51.737Z,1006.77
2018-09-03T14:35:20.227Z,1017.10
2018-09-03T14:37:48.725Z,972.23
2018-09-03T14:40:17.261Z,888.83
2018-09-03T14:42:46.150Z,750.47
2018-09-03T14:45:14.680Z,716.27
2018-09-03T14:47:43.136Z,705.63
2018-09-03T14:50:11.636Z,748.73
2018-09-03T14:52:40.230Z,755.90
2018-09-03T14:55:08.737Z,786.90
2018-09-03T14:57:37.219Z,820.03
2018-09-03T15:00:06.775Z,814.03
2018-09-03T15:02:35.256Z,803.30
2018-09-03T15:05:03.864Z,820.37
2018-09-03T15:07:32.360Z,814.90
2018-09-03T15:10:00.816Z,818.30
2018-09-03T15:12:29.335Z,824.73
2018-09-03T15:14:57.818Z,823.83
2018-09-03T15:17:26.286Z,830.27
2018-09-03T15:19:54.727Z,822.00
2018-09-03T15:22:23.268Z,821.80
2018-09-03T15:24:51.781Z,821.87
2018-09-03T15:27:20.273Z,830.23
2018-09-03T15:29:48.790Z,827.00
2018-09-03T15:32:17.256Z,822.33
2018-09-03T15:34:45.757Z,818.93
2018-09-03T15:37:14.243Z,813.17
2018-09-03T15:39:42.710Z,832.20
2018-09-03T15:42:11.215Z,835.13
2018-09-03T15:44:39.700Z,820.27
2018-09-03T15:47:08.480Z,821.83
2018-09-03T15:49:36.946Z,821.60
2018-09-03T15:52:05.547Z,829.23
2018-09-03T15:54:34.044Z,818.40
2018-09-03T15:57:02.578Z,813.90
2018-09-03T15:59:31.099Z,804.20
2018-09-03T16:01:59.616Z,781.63
2018-09-03T16:04:28.090Z,811.03
2018-09-03T16:06:56.606Z,845.20
2018-09-03T16:12:00.003Z,1001.67
2018-09-03T16:14:28.515Z,1033.80
2018-09-03T16:16:57.092Z,1023.37
2018-09-03T16:19:25.608Z,1031.03
2018-09-03T16:21:54.058Z,1055.30
2018-09-03T16:24:22.528Z,1071.87
2018-09-03T16:26:51.063Z,1100.00
2018-09-03T16:29:19.630Z,1133.77
2018-09-03T16:31:48.166Z,1125.47
2018-09-03T16:34:16.656Z,1158.87
2018-09-03T16:36:45.168Z,1160.07
2018-09-03T16:39:13.655Z,1189.27
2018-09-03T16:41:42.154Z,1188.83
2018-09-03T16:44:10.591Z,1164.53
2018-09-03T16:46:39.386Z,1196.97
2018-09-03T16:49:07.930Z,1193.40
2018-09-03T16:51:36.479Z,1177.83
2018-09-03T16:54:05.009Z,1165.40
2018-09-03T16:56:33.627Z,1128.03
2018-09-03T16:59:02.125Z,1090.50
2018-09-03T17:01:30.801Z,1062.53
2018-09-03T17:03:59.129Z,1069.63
2018-09-03T17:06:27.624Z,1056.27
2018-09-03T17:08:56.056Z,1042.80
2018-09-03T17:11:24.636Z,1021.40
2018-09-03T17:13:53.074Z,992.03
2018-09-03T17:16:21.568Z,986.33
2018-09-03T17:18:50.057Z,971.53
2018-09-03T17:21:18.535Z,954.10
2018-09-03T17:23:46.986Z,963.80
2018-09-03T17:26:15.471Z,950.07
2018-09-03T17:28:43.963Z,950.73
2018-09-03T17:31:12.426Z,948.10
2018-09-03T17:33:40.899Z,914.60
2018-09-03T17:36:09.403Z,908.83
2018-09-03T17:38:37.907Z,920.80
2018-09-03T17:41:06.350Z,925.30
2018-09-03T17:43:34.842Z,910.73
2018-09-03T17:46:03.323Z,905.63
2018-09-03T17:48:31.800Z,914.10
2018-09-03T17:51:00.307Z,925.50
2018-09-03T17:53:28.751Z,935.23
2018-09-03T17:55:57.325Z,1022.17
2018-09-03T17:58:25.859Z,1052.60
2018-09-03T18:00:54.396Z,1110.77
2018-09-03T18:03:22.909Z,1136.23
2018-09-03T18:05:51.593Z,1143.93
2018-09-03T18:08:20.908Z,1154.27
2018-09-03T18:10:49.517Z,1191.77
2018-09-03T18:13:18.026Z,1211.83
2018-09-03T18:15:46.503Z,1190.17
2018-09-03T18:18:15.052Z,1187.97
2018-09-03T18:20:43.570Z,1170.47
2018-09-03T18:23:12.077Z,1128.10
2018-09-03T18:25:40.729Z,1114.10
2018-09-03T18:28:09.255Z,1090.77
2018-09-03T18:30:37.714Z,1090.43
2018-09-03T18:33:06.235Z,1100.63
2018-09-03T18:35:34.682Z,1086.03
2018-09-03T18:38:03.197Z,1099.07
2018-09-03T18:40:31.656Z,1095.37
2018-09-03T18:43:00.179Z,1092.90
2018-09-03T18:45:28.679Z,1093.03
2018-09-03T18:47:57.168Z,1107.57
2018-09-03T18:50:25.683Z,1088.80
2018-09-03T18:52:54.212Z,1087.93
2018-09-03T18:55:22.773Z,1056.10
2018-09-03T18:57:51.262Z,1049.23
2018-09-03T19:00:19.826Z,1047.30
2018-09-03T19:02:48.240Z,1065.27
2018-09-03T19:05:16.725Z,1052.47
2018-09-03T19:07:45.238Z,1039.83
2018-09-03T19:10:13.681Z,1024.20
2018-09-03T19:12:42.175Z,1023.23
2018-09-03T19:15:10.653Z,1027.03
2018-09-03T19:17:39.136Z,1019.23
2018-09-03T19:20:07.657Z,987.33
2018-09-03T19:22:36.172Z,974.23
2018-09-03T19:25:04.787Z,988.23
2018-09-03T19:27:33.308Z,976.70
2018-09-03T19:30:01.801Z,978.00
2018-09-03T19:32:30.286Z,994.73
2018-09-03T19:34:58.781Z,1002.33
2018-09-03T19:37:27.271Z,977.13
2018-09-03T19:39:55.783Z,974.60
2018-09-03T19:42:24.235Z,963.30
2018-09-03T19:44:52.735Z,974.23
2018-09-03T19:47:21.249Z,983.27
2018-09-03T19:49:49.687Z,957.63
2018-09-03T19:52:18.164Z,958.70
2018-09-03T19:54:46.595Z,956.10
2018-09-03T19:57:15.058Z,958.97
2018-09-03T19:59:43.642Z,953.20
2018-09-03T20:02:13.057Z,973.23
2018-09-03T20:04:41.596Z,952.13
2018-09-03T20:07:10.123Z,963.33
2018-09-03T20:09:38.594Z,946.63
2018-09-03T20:12:07.136Z,949.37
2018-09-03T20:14:35.742Z,963.97
2018-09-03T20:17:04.465Z,946.67
2018-09-03T20:19:32.935Z,960.10
2018-09-03T20:22:01.454Z,972.67
2018-09-03T20:24:29.946Z,960.47
2018-09-03T20:26:58.436Z,957.97
2018-09-03T20:29:26.923Z,941.47
2018-09-03T20:31:55.427Z,952.23
2018-09-03T20:34:23.919Z,969.03
2018-09-03T20:36:52.485Z,959.67
2018-09-03T20:39:20.991Z,950.33
2018-09-03T20:41:49.528Z,952.73
2018-09-03T20:44:18.031Z,939.73
2018-09-03T20:46:46.576Z,949.53
2018-09-03T20:49:15.056Z,942.23
2018-09-03T20:51:43.714Z,953.77
2018-09-03T20:54:12.205Z,963.60
2018-09-03T20:56:40.802Z,963.33
2018-09-03T20:59:09.579Z,980.57
2018-09-03T21:01:38.539Z,997.97
2018-09-03T21:04:07.038Z,989.10
2018-09-03T21:06:35.525Z,970.90
2018-09-03T21:09:05.327Z,998.40
2018-09-03T21:11:34.008Z,981.63
2018-09-03T21:14:02.638Z,995.50
2018-09-03T21:16:31.353Z,1014.63
2018-09-03T21:18:59.863Z,1020.50
2018-09-03T21:21:28.382Z,993.67
2018-09-03T21:23:56.950Z,985.67
2018-09-03T21:26:26.127Z,994.40
2018-09-03T21:28:54.627Z,1001.47
2018-09-03T21:31:23.215Z,1014.97
2018-09-03T21:33:51.726Z,991.27
2018-09-03T21:36:21.340Z,1003.10
2018-09-03T21:38:49.959Z,993.73
2018-09-03T21:41:18.456Z,1011.63
2018-09-03T21:43:47.206Z,993.60
2018-09-03T21:46:15.699Z,1002.03
2018-09-03T21:48:44.190Z,966.47
2018-09-03T21:51:12.747Z,946.97
2018-09-03T21:53:41.227Z,947.10
2018-09-03T21:56:09.803Z,896.67
2018-09-03T21:58:38.467Z,894.60
2018-09-03T22:01:06.919Z,856.93
2018-09-03T22:03:36.210Z,844.00
2018-09-03T22:06:04.839Z,835.20
2018-09-03T22:08:34.896Z,819.30
2018-09-03T22:11:03.278Z,848.53
2018-09-03T22:13:33.137Z,839.60
2018-09-03T22:16:02.388Z,831.10
2018-09-03T22:18:30.993Z,809.93
2018-09-03T22:20:59.487Z,818.10
2018-09-03T22:23:28.847Z,837.60
2018-09-03T22:25:57.577Z,844.47
2018-09-03T22:28:26.326Z,808.67
2018-09-03T22:30:54.812Z,827.50
2018-09-03T22:33:24.246Z,830.73
2018-09-03T22:35:52.758Z,823.50
2018-09-03T22:38:21.314Z,844.10
2018-09-03T22:40:49.928Z,813.67
2018-09-03T22:43:18.427Z,831.07
2018-09-03T22:45:47.119Z,822.83
2018-09-03T22:48:16.184Z,832.87
2018-09-03T22:50:44.707Z,835.57
2018-09-03T22:53:14.032Z,848.00
2018-09-03T22:55:42.675Z,841.63
2018-09-03T22:58:11.265Z,827.73
2018-09-03T23:00:39.883Z,843.30
2018-09-03T23:03:08.389Z,852.53
2018-09-03T23:05:37.026Z,832.23
2018-09-03T23:08:05.680Z,837.53
2018-09-03T23:10:34.158Z,835.27
2018-09-03T23:13:02.706Z,830.40
2018-09-03T23:15:31.612Z,828.20
2018-09-03T23:18:01.103Z,832.27
2018-09-03T23:20:29.626Z,818.30
2018-09-03T23:22:59.064Z,824.57
2018-09-03T23:25:27.590Z,831.93
2018-09-03T23:27:56.139Z,799.73
2018-09-03T23:30:31.119Z,836.57
2018-09-03T23:32:59.580Z,821.40
2018-09-03T23:35:28.066Z,824.57
2018-09-03T23:37:56.532Z,835.83
2018-09-03T23:40:25.050Z,860.27
2018-09-03T23:42:53.683Z,856.60
2018-09-03T23:45:22.207Z,847.87
2018-09-03T23:47:50.686Z,852.67
2018-09-03T23:50:19.193Z,833.97
2018-09-03T23:52:47.700Z,838.47
2018-09-03T23:55:16.184Z,826.37
2018-09-03T23:57:44.785Z,853.07
